地図

経路データ

SID SEASON NUMBER BASIN SUBBASIN NAME ISO_TIME NATURE LAT LON WMO_WIND WMO_PRES WMO_AGENCY TRACK_TYPE DIST2LAND LANDFALL IFLAG USA_AGENCY USA_ATCF_ID USA_LAT USA_LON USA_RECORD USA_STATUS USA_WIND USA_PRES USA_SSHS USA_R34_NE USA_R34_SE USA_R34_SW USA_R34_NW USA_R50_NE USA_R50_SE USA_R50_SW USA_R50_NW USA_R64_NE USA_R64_SE USA_R64_SW USA_R64_NW USA_POCI USA_ROCI USA_RMW USA_EYE TOKYO_LAT TOKYO_LON TOKYO_GRADE TOKYO_WIND TOKYO_PRES TOKYO_R50_DIR TOKYO_R50_LONG TOKYO_R50_SHORT TOKYO_R30_DIR TOKYO_R30_LONG TOKYO_R30_SHORT TOKYO_LAND CMA_LAT CMA_LON CMA_CAT CMA_WIND CMA_PRES HKO_LAT HKO_LON HKO_CAT HKO_WIND HKO_PRES NEWDELHI_LAT NEWDELHI_LON NEWDELHI_GRADE NEWDELHI_WIND NEWDELHI_PRES NEWDELHI_CI NEWDELHI_DP NEWDELHI_POCI REUNION_LAT REUNION_LON REUNION_TYPE REUNION_WIND REUNION_PRES REUNION_TNUM REUNION_CI REUNION_RMW REUNION_R34_NE REUNION_R34_SE REUNION_R34_SW REUNION_R34_NW REUNION_R50_NE REUNION_R50_SE REUNION_R50_SW REUNION_R50_NW REUNION_R64_NE REUNION_R64_SE REUNION_R64_SW REUNION_R64_NW BOM_LAT BOM_LON BOM_TYPE BOM_WIND BOM_PRES BOM_TNUM BOM_CI BOM_RMW BOM_R34_NE BOM_R34_SE BOM_R34_SW BOM_R34_NW BOM_R50_NE BOM_R50_SE BOM_R50_SW BOM_R50_NW BOM_R64_NE BOM_R64_SE BOM_R64_SW BOM_R64_NW BOM_ROCI BOM_POCI BOM_EYE BOM_POS_METHOD BOM_PRES_METHOD NADI_LAT NADI_LON NADI_CAT NADI_WIND NADI_PRES WELLINGTON_LAT WELLINGTON_LON WELLINGTON_WIND WELLINGTON_PRES DS824_LAT DS824_LON DS824_STAGE DS824_WIND DS824_PRES TD9636_LAT TD9636_LON TD9636_STAGE TD9636_WIND TD9636_PRES TD9635_LAT TD9635_LON TD9635_WIND TD9635_PRES TD9635_ROCI NEUMANN_LAT NEUMANN_LON NEUMANN_CLASS NEUMANN_WIND NEUMANN_PRES MLC_LAT MLC_LON MLC_CLASS MLC_WIND MLC_PRES USA_GUST BOM_GUST BOM_GUST_PER REUNION_GUST REUNION_GUST_PER USA_SEAHGT USA_SEARAD_NE USA_SEARAD_SE USA_SEARAD_SW USA_SEARAD_NW STORM_SPEED STORM_DIR
1922288N10091 1922 59 NI BB NOT_NAMED 1922-10-15 00:00:00 TS 10.2000 91.0000 main 692 692 _________O____ -1 10.2000 91.0000 TC 30 8 297
1922288N10091 1922 59 NI BB NOT_NAMED 1922-10-15 03:00:00 TS 10.3685 90.6569 main 725 725 _________PO___ -1 10.4528 90.4853 TC 30 10.2000 91.0000 1 8 298
1922288N10091 1922 59 NI BB NOT_NAMED 1922-10-15 06:00:00 TS 10.5915 90.2441 main 738 736 _________OP___ -1 10.7000 90.0000 TC 30 10.4289 90.6102 1 9 299
1922288N10091 1922 59 NI BB NOT_NAMED 1922-10-15 09:00:00 TS 10.8238 89.8154 main 749 747 _________PP___ -1 10.9422 89.5447 TC 30 10.6661 90.1762 1 10 297
1922288N10091 1922 59 NI BB NOT_NAMED 1922-10-15 12:00:00 TS 11.0602 89.3271 main 762 762 _________OP___ -1 11.2000 89.0000 TC 30 10.9203 89.6543 1 13 294
1922288N10091 1922 59 NI BB NOT_NAMED 1922-10-15 15:00:00 TS 11.3463 88.6188 main 802 787 _________PO___ -1 11.4927 88.2375 TC 30 11.2000 89.0000 1 16 292
1922288N10091 1922 59 NI BB NOT_NAMED 1922-10-15 18:00:00 TS 11.6539 87.7979 main 792 722 _________OP___ -1 11.8000 87.4000 TC 30 11.5077 88.1957 1 18 291
1922288N10091 1922 59 NI BB NOT_NAMED 1922-10-15 21:00:00 TS 11.9702 86.9385 main 714 647 _________PP___ -1 12.1153 86.5452 TC 30 11.8251 87.3318 1 17 292
1922288N10091 1922 59 NI BB NOT_NAMED 1922-10-16 00:00:00 TS 12.2648 86.2134 main 638 593 _________OP___ -1 12.4000 85.9000 TC 30 12.1297 86.5268 1 12 296
1922288N10091 1922 59 NI BB NOT_NAMED 1922-10-16 03:00:00 TS 12.5111 85.8011 main 593 569 _________PO___ -1 12.6221 85.7022 TC 30 12.4000 85.9000 1 7 310
1922288N10091 1922 59 NI BB NOT_NAMED 1922-10-16 06:00:00 TS 12.7067 85.6666 main 569 545 _________OP___ -1 12.8000 85.7000 TC 30 12.6135 85.6333 1 4 330
1922288N10091 1922 59 NI BB NOT_NAMED 1922-10-16 09:00:00 TS 12.8753 85.5893 main 545 529 _________PP___ -1 12.9574 85.6299 TC 30 12.7932 85.5487 1 4 336
1922288N10091 1922 59 NI BB NOT_NAMED 1922-10-16 12:00:00 TS 13.0257 85.5199 main 529 505 _________OP___ -1 13.1000 85.5000 TC 30 12.9514 85.5398 1 4 323
1922288N10091 1922 59 NI BB NOT_NAMED 1922-10-16 15:00:00 TS 13.1750 85.3613 main 505 476 _________PO___ -1 13.2501 85.2225 TC 30 13.1000 85.5000 1 5 306
1922288N10091 1922 59 NI BB NOT_NAMED 1922-10-16 18:00:00 TS 13.3307 85.0836 main 476 438 _________OP___ -1 13.4000 84.9000 TC 30 13.2614 85.2673 1 6 300
1922288N10091 1922 59 NI BB NOT_NAMED 1922-10-16 21:00:00 TS 13.4863 84.8150 main 438 416 _________PP___ -1 13.5575 84.6425 TC 30 13.4152 84.9876 1 6 300
1922288N10091 1922 59 NI BB NOT_NAMED 1922-10-17 00:00:00 TS 13.6307 84.5446 main 410 389 _________OP___ -1 13.7000 84.4000 TC 30 13.5614 84.6891 1 6 297
1922288N10091 1922 59 NI BB NOT_NAMED 1922-10-17 03:00:00 TS 13.7500 84.2712 main 379 353 _________PO___ -1 13.8000 84.1424 TC 30 13.7000 84.4000 1 6 295
1922288N10091 1922 59 NI BB NOT_NAMED 1922-10-17 06:00:00 TS 13.8660 84.0262 main 353 332 _________OP___ -1 13.9000 83.9000 TC 30 13.8321 84.1524 1 5 299
1922288N10091 1922 59 NI BB NOT_NAMED 1922-10-17 09:00:00 TS 14.0037 83.8062 main 332 312 _________PP___ -1 14.0500 83.6925 TC 30 13.9574 83.9199 1 5 303
1922288N10091 1922 59 NI BB NOT_NAMED 1922-10-17 12:00:00 TS 14.1395 83.6012 main 312 292 _________OP___ -1 14.2000 83.5000 TC 30 14.0790 83.7024 1 5 302
1922288N10091 1922 59 NI BB NOT_NAMED 1922-10-17 15:00:00 TS 14.2500 83.3962 main 282 273 _________PO___ -1 14.3000 83.2925 TC 30 14.2000 83.5000 1 4 300
1922288N10091 1922 59 NI BB NOT_NAMED 1922-10-17 18:00:00 TS 14.3559 83.2211 main 262 248 _________OP___ -1 14.4000 83.1000 TC 30 14.3229 83.3120 1 4 305
1922288N10091 1922 59 NI BB NOT_NAMED 1922-10-17 21:00:00 TS 14.4836 83.0571 main 248 228 _________PP___ -1 14.5375 82.9401 TC 30 14.4476 83.1352 1 4 311
1922288N10091 1922 59 NI BB NOT_NAMED 1922-10-18 00:00:00 TS 14.6157 82.9105 main 228 213 _________OP___ -1 14.7000 82.8000 TC 30 14.5735 82.9658 1 3 311
1922288N10091 1922 59 NI BB NOT_NAMED 1922-10-18 03:00:00 NR 14.7000 82.8000 main 213 __________O___ -1 TC 14.7000 82.8000 1 3 308

IBTrACS Databaseについて

本データベースは、米国NOAAが公開する1842年以降の世界の熱帯低気圧のベストトラックデータアーカイブInternational Best Track Archive for Climate Stewardship (IBTrACS)を、ウェブで閲覧しやすい形式に変換したものです。

最終更新日:2021-11-26